Time;durP1;ratioP1;P1;durP2;ratioP2;P2;SDS_P1;SDS_P2;PMS_P1;PMS_P2;Temp;Humidity;BMP_temperature;BMP_pressure;BME280_temperature;BME280_humidity;BME280_pressure;Samples;Min_cycle;Max_cycle;Signal;HPM_P1;HPM_P2
2022/05/28 00:02:37;;;;;;;8.18;5.15;;;11.70;99.90;;;;;;5061005;28;20048;-85
2022/05/28 00:05:25;;;;;;;10.02;5.10;;;11.60;99.90;;;;;;5076274;28;20044;-83
2022/05/28 00:08:15;;;;;;;12.77;5.90;;;11.70;99.90;;;;;;5062040;28;20051;-85
2022/05/28 00:11:11;;;;;;;11.82;6.85;;;11.60;99.90;;;;;;5083523;28;20076;-84
2022/05/28 00:14:01;;;;;;;14.18;8.18;;;11.60;99.90;;;;;;5077623;28;20045;-84
2022/05/28 00:16:49;;;;;;;16.95;8.40;;;11.50;99.90;;;;;;5058013;28;20112;-84
2022/05/28 00:19:36;;;;;;;15.68;8.25;;;11.30;99.90;;;;;;5076558;28;20409;-82
2022/05/28 00:22:26;;;;;;;15.20;8.55;;;11.20;99.90;;;;;;5096754;28;20040;-83
2022/05/28 00:25:15;;;;;;;19.75;8.77;;;11.10;99.90;;;;;;5051882;28;20048;-85
2022/05/28 00:28:03;;;;;;;18.48;8.80;;;11.00;99.90;;;;;;5075686;28;20050;-86
2022/05/28 00:30:51;;;;;;;20.33;9.07;;;10.90;99.90;;;;;;5056081;28;20152;-83
2022/05/28 00:33:41;;;;;;;24.42;9.23;;;10.80;99.90;;;;;;5068490;28;20041;-85
2022/05/28 00:36:31;;;;;;;15.98;9.35;;;10.70;99.90;;;;;;5076402;28;20040;-84
2022/05/28 00:39:18;;;;;;;21.00;8.98;;;10.70;99.90;;;;;;5062230;28;20083;-85
2022/05/28 00:42:08;;;;;;;20.55;9.88;;;10.60;99.90;;;;;;5076528;28;20145;-84
2022/05/28 00:44:58;;;;;;;22.73;9.52;;;10.50;99.90;;;;;;5053857;28;20080;-85
2022/05/28 00:47:48;;;;;;;19.80;9.23;;;10.40;99.90;;;;;;5069250;28;20080;-85
2022/05/28 00:50:38;;;;;;;29.17;10.35;;;10.30;99.90;;;;;;5076709;28;20136;-85
2022/05/28 00:53:27;;;;;;;25.30;10.25;;;10.20;99.90;;;;;;5077221;28;20074;-86
2022/05/28 00:56:18;;;;;;;26.20;9.98;;;10.10;99.90;;;;;;5059147;28;20057;-86
2022/05/28 00:59:07;;;;;;;20.95;9.30;;;10.10;99.90;;;;;;5065045;28;20107;-85
2022/05/28 01:02:02;;;;;;;25.80;9.50;;;10.10;99.90;;;;;;5065684;28;20060;-85
2022/05/28 01:05:07;;;;;;;26.23;10.35;;;10.00;99.90;;;;;;5078711;28;20053;-85
2022/05/28 01:08:10;;;;;;;21.55;9.88;;;10.00;99.90;;;;;;5085986;28;20076;-86
2022/05/28 01:11:06;;;;;;;20.15;10.90;;;9.90;99.90;;;;;;5067834;28;20045;-85
2022/05/28 01:14:08;;;;;;;23.75;10.63;;;9.90;99.90;;;;;;5091901;28;20094;-85
2022/05/28 01:17:03;;;;;;;17.47;8.03;;;9.90;99.90;;;;;;5094325;28;20040;-84
2022/05/28 01:20:35;;;;;;;18.48;10.13;;;9.90;99.90;;;;;;5066260;28;20328;-85
2022/05/28 01:23:27;;;;;;;21.30;10.68;;;9.90;99.90;;;;;;5091811;28;20085;-85
2022/05/28 01:26:19;;;;;;;;;;;9.90;99.90;;;;;;5095761;28;20107;-84
2022/05/28 01:29:12;;;;;;;32.97;12.48;;;9.80;99.90;;;;;;5074940;28;19924;-85
2022/05/28 01:32:03;;;;;;;28.75;10.15;;;9.80;99.90;;;;;;5086252;28;20530;-85
2022/05/28 01:34:51;;;;;;;20.08;10.48;;;9.90;99.90;;;;;;5053006;28;20080;-85
2022/05/28 01:37:39;;;;;;;21.20;9.68;;;9.90;99.90;;;;;;5063591;28;20068;-85
2022/05/28 01:40:27;;;;;;;21.95;9.60;;;9.80;99.90;;;;;;5078714;28;20117;-85
2022/05/28 01:43:20;;;;;;;25.63;9.52;;;9.80;99.90;;;;;;5062555;28;20076;-85
2022/05/28 01:46:09;;;;;;;21.23;8.20;;;9.80;99.90;;;;;;5069868;28;20120;-85
2022/05/28 01:48:58;;;;;;;17.80;7.90;;;9.70;99.90;;;;;;5077785;28;20082;-82
2022/05/28 01:51:52;;;;;;;23.00;7.80;;;9.70;99.90;;;;;;5057947;28;20094;-87
2022/05/28 01:54:43;;;;;;;18.90;7.13;;;9.60;99.90;;;;;;5059888;28;20071;-86
2022/05/28 01:57:30;;;;;;;22.35;6.82;;;9.60;99.90;;;;;;5055030;28;20110;-84
2022/05/28 02:00:18;;;;;;;18.25;6.40;;;9.60;99.90;;;;;;5078394;28;20101;-88
2022/05/28 02:03:05;;;;;;;18.85;6.80;;;9.50;99.90;;;;;;5078844;28;20056;-87
2022/05/28 02:05:52;;;;;;;22.42;6.90;;;9.50;99.90;;;;;;5071257;28;20137;-86
2022/05/28 02:08:46;;;;;;;18.63;6.70;;;9.40;99.90;;;;;;5066939;28;20040;-87
2022/05/28 02:11:47;;;;;;;24.15;7.53;;;9.30;99.90;;;;;;5078483;28;20049;-85
2022/05/28 02:15:06;;;;;;;20.48;5.93;;;9.40;99.90;;;;;;5074995;28;20467;-87
2022/05/28 02:17:58;;;;;;;17.58;5.47;;;9.30;99.90;;;;;;5072550;28;20141;-86
2022/05/28 02:21:10;;;;;;;13.35;4.47;;;9.20;99.90;;;;;;5065538;28;20103;-85
2022/05/28 02:24:11;;;;;;;17.92;5.53;;;9.20;99.90;;;;;;5052971;28;20102;-87
2022/05/28 02:27:05;;;;;;;19.98;5.63;;;9.10;99.90;;;;;;5094992;28;20143;-82
2022/05/28 02:29:52;;;;;;;19.90;5.38;;;9.10;99.90;;;;;;5074155;28;20100;-81
2022/05/28 02:32:40;;;;;;;17.00;5.30;;;9.00;99.90;;;;;;5100739;28;20102;-89
2022/05/28 02:35:27;;;;;;;24.58;5.28;;;8.90;99.90;;;;;;5083654;28;20098;-86
2022/05/28 02:38:16;;;;;;;17.02;5.22;;;8.80;99.90;;;;;;5084419;28;20052;-84
2022/05/28 02:41:03;;;;;;;18.65;4.30;;;8.70;99.90;;;;;;5068295;28;20108;-86
2022/05/28 02:43:53;;;;;;;18.65;4.75;;;8.70;99.90;;;;;;5072786;28;20059;-84
2022/05/28 02:46:42;;;;;;;23.00;4.93;;;8.70;99.90;;;;;;5067892;28;20076;-85
2022/05/28 02:49:30;;;;;;;15.75;4.03;;;8.70;99.90;;;;;;5070548;28;20056;-83
2022/05/28 02:52:17;;;;;;;24.77;5.28;;;8.60;99.90;;;;;;5072802;28;20148;-85
2022/05/28 02:55:04;;;;;;;13.40;4.90;;;8.70;99.90;;;;;;5064456;28;20084;-85
2022/05/28 02:57:51;;;;;;;16.45;5.03;;;8.70;99.90;;;;;;5076026;28;20048;-86
2022/05/28 03:00:39;;;;;;;18.23;5.10;;;8.70;99.90;;;;;;5078475;28;20041;-86
2022/05/28 03:03:26;;;;;;;19.88;5.47;;;8.70;99.90;;;;;;5073672;28;20051;-85
2022/05/28 03:06:16;;;;;;;15.07;5.18;;;8.70;99.90;;;;;;5066727;28;20068;-85
2022/05/28 03:09:08;;;;;;;23.70;4.50;;;8.70;99.90;;;;;;5074986;28;20461;-85
2022/05/28 03:11:57;;;;;;;17.17;4.90;;;8.60;99.90;;;;;;5059207;28;20084;-86
2022/05/28 03:14:46;;;;;;;20.67;5.25;;;8.60;99.90;;;;;;5073372;28;20117;-84
2022/05/28 03:17:34;;;;;;;18.67;4.88;;;8.50;99.90;;;;;;5075840;28;20041;-85
2022/05/28 03:20:23;;;;;;;13.02;4.65;;;8.50;99.90;;;;;;5067817;28;20059;-83
2022/05/28 03:23:10;;;;;;;21.15;5.18;;;8.50;99.90;;;;;;5071097;28;20100;-85
2022/05/28 03:25:58;;;;;;;16.30;4.60;;;8.40;99.90;;;;;;5072899;28;20041;-86
2022/05/28 03:28:46;;;;;;;14.15;4.22;;;8.30;99.90;;;;;;5078102;28;20114;-86
2022/05/28 03:31:34;;;;;;;14.60;4.93;;;8.20;99.90;;;;;;5072685;28;20055;-86
2022/05/28 03:34:21;;;;;;;15.45;4.55;;;8.10;99.90;;;;;;5067133;28;20037;-84
2022/05/28 03:37:10;;;;;;;21.10;4.93;;;8.00;99.90;;;;;;5075095;28;20132;-84
2022/05/28 03:39:59;;;;;;;17.75;4.90;;;8.00;99.90;;;;;;5060057;28;20087;-87
2022/05/28 03:42:46;;;;;;;22.45;4.93;;;7.90;99.90;;;;;;5074759;28;20126;-85
2022/05/28 03:45:34;;;;;;;20.27;4.82;;;7.90;99.90;;;;;;5074512;28;20048;-84
2022/05/28 03:48:21;;;;;;;18.92;4.50;;;7.90;99.90;;;;;;5064147;28;20059;-84
2022/05/28 03:51:08;;;;;;;16.95;4.28;;;7.90;99.90;;;;;;5076053;28;20048;-84
2022/05/28 03:53:56;;;;;;;21.38;4.68;;;7.90;99.90;;;;;;5077454;28;20136;-84
2022/05/28 03:56:46;;;;;;;18.67;4.75;;;8.00;99.90;;;;;;5084248;28;20041;-84
2022/05/28 03:59:36;;;;;;;16.50;3.85;;;8.00;99.90;;;;;;5072748;28;20050;-86
2022/05/28 04:02:26;;;;;;;19.58;4.15;;;8.00;99.90;;;;;;5036298;28;20129;-86
2022/05/28 04:05:15;;;;;;;13.35;4.38;;;8.10;99.90;;;;;;5058486;28;20048;-84
2022/05/28 04:08:07;;;;;;;24.58;4.43;;;8.00;99.90;;;;;;5072891;28;20110;-82
2022/05/28 04:10:54;;;;;;;22.05;4.25;;;7.90;99.90;;;;;;5064723;28;20068;-83
2022/05/28 04:13:41;;;;;;;22.38;4.68;;;7.90;99.90;;;;;;5073192;28;20049;-85
2022/05/28 04:16:28;;;;;;;20.73;4.05;;;7.80;99.90;;;;;;5085939;28;20082;-85
2022/05/28 04:19:16;;;;;;;16.35;4.20;;;7.80;99.90;;;;;;5065297;28;20123;-83
2022/05/28 04:22:03;;;;;;;18.42;4.22;;;7.90;99.90;;;;;;5057356;28;20331;-82
2022/05/28 04:24:54;;;;;;;16.85;3.92;;;7.90;99.90;;;;;;5067163;28;20113;-84
2022/05/28 04:27:44;;;;;;;14.70;3.13;;;7.90;99.90;;;;;;5060398;28;20044;-83
2022/05/28 04:30:31;;;;;;;15.00;3.78;;;7.90;99.90;;;;;;5072644;28;20040;-86
2022/05/28 04:33:18;;;;;;;12.30;3.08;;;7.90;99.90;;;;;;5045999;28;20102;-83
2022/05/28 04:36:08;;;;;;;23.55;4.25;;;7.90;99.90;;;;;;5085015;28;20101;-82
2022/05/28 04:38:56;;;;;;;18.98;3.47;;;7.90;99.90;;;;;;5068091;28;20044;-82
2022/05/28 04:41:45;;;;;;;17.88;3.63;;;8.00;99.90;;;;;;5069263;28;20156;-83
2022/05/28 04:44:32;;;;;;;18.35;3.95;;;8.00;99.90;;;;;;5078174;28;20442;-84
2022/05/28 04:47:22;;;;;;;20.17;3.63;;;8.00;99.90;;;;;;5072974;28;20127;-83
2022/05/28 04:50:09;;;;;;;16.88;4.13;;;7.90;99.90;;;;;;5060560;28;20052;-83
2022/05/28 04:52:56;;;;;;;16.05;4.05;;;7.80;99.90;;;;;;5058828;28;20369;-82
2022/05/28 04:55:45;;;;;;;20.15;3.97;;;7.80;99.90;;;;;;5064807;28;20041;-83
2022/05/28 04:58:32;;;;;;;19.52;4.55;;;7.80;99.90;;;;;;5080049;28;20420;-83
2022/05/28 05:01:23;;;;;;;21.00;4.10;;;7.80;99.90;;;;;;5074286;28;20133;-82
2022/05/28 05:04:11;;;;;;;23.65;5.22;;;7.90;99.90;;;;;;5059277;28;20058;-81
2022/05/28 05:06:58;;;;;;;13.43;4.22;;;8.00;99.90;;;;;;5097471;28;20108;-85
2022/05/28 05:09:47;;;;;;;14.88;3.97;;;8.20;99.90;;;;;;5089648;28;20029;-82
2022/05/28 05:12:35;;;;;;;21.52;5.65;;;8.30;99.90;;;;;;5072678;28;20037;-82
2022/05/28 05:15:33;;;;;;;19.90;4.53;;;8.40;99.90;;;;;;5076828;28;20095;-84
2022/05/28 05:18:20;;;;;;;12.20;4.25;;;8.50;99.90;;;;;;5068120;28;20076;-84
2022/05/28 05:21:08;;;;;;;19.40;4.50;;;8.60;99.90;;;;;;5066303;28;20471;-84
2022/05/28 05:23:55;;;;;;;20.67;4.28;;;8.60;99.90;;;;;;5070468;28;20110;-85
2022/05/28 05:26:44;;;;;;;22.70;5.10;;;8.70;99.90;;;;;;5064392;28;20125;-84
2022/05/28 05:29:36;;;;;;;12.38;4.43;;;8.80;99.90;;;;;;5075197;28;20154;-86
2022/05/28 05:32:23;;;;;;;16.23;4.83;;;8.90;99.90;;;;;;5074948;28;20117;-82
2022/05/28 05:35:11;;;;;;;16.10;4.22;;;9.00;99.90;;;;;;5075286;28;20686;-84
2022/05/28 05:38:05;;;;;;;16.58;4.10;;;9.20;99.90;;;;;;5067659;28;20127;-85
2022/05/28 05:40:53;;;;;;;19.05;4.13;;;9.30;99.90;;;;;;5083231;28;20040;-84
2022/05/28 05:43:41;;;;;;;11.48;4.22;;;9.40;99.90;;;;;;5085071;28;20049;-83
2022/05/28 05:46:28;;;;;;;18.10;4.00;;;9.50;99.90;;;;;;5086351;28;20041;-81
2022/05/28 05:49:18;;;;;;;19.55;4.28;;;9.60;99.90;;;;;;5105390;28;20063;-84
2022/05/28 05:52:08;;;;;;;20.42;4.40;;;9.70;99.90;;;;;;5095363;28;20048;-83
2022/05/28 05:54:57;;;;;;;13.30;3.60;;;9.70;99.90;;;;;;5093386;28;20094;-84
2022/05/28 05:57:44;;;;;;;14.70;4.13;;;9.80;99.90;;;;;;5075697;28;20134;-85
2022/05/28 06:00:31;;;;;;;19.70;3.67;;;9.90;99.90;;;;;;5062605;28;20182;-85
2022/05/28 06:03:19;;;;;;;14.50;4.43;;;10.00;99.90;;;;;;5078225;28;20047;-87
2022/05/28 06:06:06;;;;;;;15.45;4.20;;;10.00;99.90;;;;;;5075822;28;20512;-85
2022/05/28 06:08:54;;;;;;;16.25;4.15;;;10.00;99.90;;;;;;5064333;28;20051;-83
2022/05/28 06:11:47;;;;;;;21.58;4.63;;;10.00;99.90;;;;;;5077013;28;20051;-85
2022/05/28 06:14:36;;;;;;;17.52;4.20;;;10.10;99.90;;;;;;5077397;28;20385;-81
2022/05/28 06:17:25;;;;;;;15.27;3.53;;;10.20;99.90;;;;;;5079459;28;20197;-83
2022/05/28 06:20:12;;;;;;;15.70;3.78;;;10.30;99.90;;;;;;5072122;28;20048;-84
2022/05/28 06:23:02;;;;;;;11.52;3.03;;;10.50;99.90;;;;;;5046090;28;20040;-85
2022/05/28 06:25:50;;;;;;;15.30;3.22;;;10.60;99.90;;;;;;5075191;28;20125;-84
2022/05/28 06:28:37;;;;;;;11.85;2.97;;;10.70;99.90;;;;;;5070827;28;20063;-83
2022/05/28 06:31:27;;;;;;;11.75;3.33;;;10.70;99.90;;;;;;5070938;28;20114;-87
2022/05/28 06:34:14;;;;;;;18.48;3.60;;;10.90;99.90;;;;;;5069743;28;20174;-81
2022/05/28 06:37:01;;;;;;;13.05;2.90;;;11.10;99.90;;;;;;5069505;28;20100;-86
2022/05/28 06:39:51;;;;;;;14.20;2.70;;;11.40;99.90;;;;;;5049016;28;20048;-84
2022/05/28 06:42:41;;;;;;;13.70;2.60;;;11.70;99.90;;;;;;5060851;28;20607;-82
2022/05/28 06:45:31;;;;;;;15.25;3.30;;;12.00;99.90;;;;;;5073390;28;20323;-82
2022/05/28 06:48:18;;;;;;;10.20;2.67;;;12.20;99.90;;;;;;5058290;28;20040;-83
2022/05/28 06:51:06;;;;;;;12.52;2.53;;;12.50;99.90;;;;;;5068338;28;20124;-85
2022/05/28 06:53:54;;;;;;;12.77;2.53;;;12.90;99.90;;;;;;5073326;28;20040;-83
2022/05/28 06:56:41;;;;;;;8.30;2.17;;;13.30;99.90;;;;;;5067174;28;20048;-86
2022/05/28 06:59:30;;;;;;;12.27;2.53;;;13.50;99.90;;;;;;5064098;28;20040;-81
2022/05/28 07:02:17;;;;;;;8.63;1.80;;;13.80;99.90;;;;;;5056649;28;20075;-84
2022/05/28 07:05:05;;;;;;;12.38;2.55;;;13.80;99.90;;;;;;5064497;28;20358;-86
2022/05/28 07:07:54;;;;;;;12.77;2.30;;;14.10;99.90;;;;;;5064928;28;20378;-86
2022/05/28 07:10:48;;;;;;;5.60;1.90;;;14.40;99.90;;;;;;5080854;28;20086;-85
2022/05/28 07:13:36;;;;;;;9.65;1.98;;;14.70;99.90;;;;;;5087086;28;20643;-85
2022/05/28 07:16:24;;;;;;;8.35;2.15;;;15.20;99.90;;;;;;5087074;28;20052;-82
2022/05/28 07:19:13;;;;;;;6.97;1.90;;;15.80;99.90;;;;;;5077909;28;20040;-82
2022/05/28 07:22:01;;;;;;;8.60;1.80;;;16.10;96.60;;;;;;5089211;28;20051;-85
2022/05/28 07:24:48;;;;;;;10.02;2.25;;;15.80;87.40;;;;;;5058097;28;20079;-86
2022/05/28 07:27:39;;;;;;;7.30;2.10;;;16.00;97.70;;;;;;5079325;28;20052;-88
2022/05/28 07:30:27;;;;;;;8.75;2.08;;;16.30;96.00;;;;;;5068805;28;20140;-86
2022/05/28 07:33:14;;;;;;;7.72;2.13;;;16.70;93.10;;;;;;5080324;28;20055;-85
2022/05/28 07:36:02;;;;;;;8.77;1.70;;;16.70;93.10;;;;;;5060310;28;20120;-85
2022/05/28 07:38:51;;;;;;;9.77;1.73;;;16.90;93.40;;;;;;5073472;28;20658;-85
2022/05/28 07:41:38;;;;;;;5.50;1.65;;;17.10;80.00;;;;;;5083955;28;20076;-86
2022/05/28 07:44:25;;;;;;;8.95;1.95;;;17.60;83.70;;;;;;5072421;28;20064;-85
2022/05/28 07:47:15;;;;;;;7.30;1.75;;;17.40;75.60;;;;;;5064345;28;20044;-81
2022/05/28 07:50:07;;;;;;;6.70;1.65;;;17.50;86.20;;;;;;5062372;28;20178;-86
2022/05/28 07:52:55;;;;;;;5.80;1.55;;;17.30;80.10;;;;;;5080380;28;20059;-86
2022/05/28 07:55:45;;;;;;;6.25;1.45;;;17.40;87.50;;;;;;5051963;28;20048;-86
2022/05/28 07:58:32;;;;;;;5.13;1.52;;;17.50;78.60;;;;;;5073253;28;20127;-86
2022/05/28 08:01:28;;;;;;;6.05;1.60;;;17.60;73.70;;;;;;5073919;28;20044;-85
2022/05/28 08:04:16;;;;;;;5.05;1.45;;;17.80;71.10;;;;;;5084233;28;20048;-86
2022/05/28 08:07:07;;;;;;;6.28;1.50;;;17.70;76.70;;;;;;5060831;28;20511;-84
2022/05/28 08:09:55;;;;;;;8.65;1.70;;;17.80;73.60;;;;;;5089153;28;20052;-84
2022/05/28 08:12:43;;;;;;;11.40;1.90;;;18.30;67.70;;;;;;5047716;28;20110;-83
2022/05/28 08:15:30;;;;;;;10.00;2.03;;;18.60;69.00;;;;;;5070730;28;20048;-84
2022/05/28 08:18:23;;;;;;;5.68;0.98;;;18.90;69.60;;;;;;5066473;28;20053;-84
2022/05/28 08:24:20;;;;;;;4.47;1.25;;;19.50;64.10;;;;;;5071022;28;20109;-86
2022/05/28 08:27:07;;;;;;;3.95;1.25;;;19.30;62.40;;;;;;5060285;28;20351;-86
2022/05/28 08:29:55;;;;;;;3.50;1.08;;;19.70;65.50;;;;;;5064301;28;20482;-87
2022/05/28 08:32:42;;;;;;;6.88;1.00;;;20.10;60.70;;;;;;5078610;28;20056;-85
2022/05/28 08:35:35;;;;;;;5.10;1.37;;;19.90;60.70;;;;;;5076105;28;20457;-90
2022/05/28 08:38:24;;;;;;;7.97;1.58;;;19.70;62.20;;;;;;5068115;28;20075;-86
2022/05/28 08:41:36;;;;;;;3.28;0.80;;;19.90;61.30;;;;;;5075923;28;20124;-86
2022/05/28 08:44:37;;;;;;;6.25;1.45;;;20.10;54.00;;;;;;5071742;28;20066;-86
2022/05/28 08:47:33;;;;;;;3.63;1.45;;;20.50;54.60;;;;;;5061643;28;20040;-86
2022/05/28 08:50:21;;;;;;;6.60;1.33;;;21.30;53.30;;;;;;5057819;28;20052;-89
2022/05/28 08:53:20;;;;;;;5.80;1.45;;;21.40;52.20;;;;;;5061699;28;20044;-87
2022/05/28 08:56:08;;;;;;;4.90;1.30;;;21.70;51.40;;;;;;5072252;28;20055;-88
2022/05/28 08:59:20;;;;;;;5.45;1.45;;;21.70;54.20;;;;;;5084322;28;20048;-83
2022/05/28 09:02:28;;;;;;;4.60;1.10;;;22.10;51.90;;;;;;5077484;28;20100;-86
2022/05/28 09:05:26;;;;;;;4.47;1.00;;;21.90;48.00;;;;;;5089596;28;20041;-87
2022/05/28 09:08:17;;;;;;;3.70;1.17;;;21.80;52.80;;;;;;5095383;28;20033;-79
2022/05/28 09:11:30;;;;;;;5.65;1.33;;;22.10;52.80;;;;;;5092837;28;20050;-80
2022/05/28 09:14:34;;;;;;;4.72;1.13;;;21.90;53.20;;;;;;5094682;28;20072;-82
2022/05/28 09:17:32;;;;;;;3.13;1.08;;;22.00;50.80;;;;;;5072608;28;20068;-86
2022/05/28 09:20:40;;;;;;;5.40;1.02;;;21.50;50.30;;;;;;5065446;28;20063;-86
2022/05/28 09:23:27;;;;;;;3.05;0.82;;;21.60;50.30;;;;;;5066950;28;20036;-86
2022/05/28 09:26:28;;;;;;;4.82;1.13;;;21.90;51.40;;;;;;5089785;28;20100;-88
2022/05/28 09:29:48;;;;;;;6.35;1.33;;;22.10;49.30;;;;;;5075814;28;20103;-84
2022/05/28 09:32:35;;;;;;;3.22;0.82;;;22.70;45.70;;;;;;5077078;28;20063;-86
2022/05/28 09:35:53;;;;;;;7.05;1.15;;;23.00;44.90;;;;;;5079621;28;20044;-84
2022/05/28 09:39:09;;;;;;;4.75;1.38;;;22.70;52.60;;;;;;5067936;28;20053;-84
2022/05/28 09:42:20;;;;;;;5.88;2.03;;;22.40;49.30;;;;;;5048309;28;20194;-84
2022/05/28 09:45:20;;;;;;;5.57;1.15;;;22.50;50.40;;;;;;5065361;28;20183;-86
2022/05/28 09:48:23;;;;;;;3.78;0.98;;;22.20;49.90;;;;;;5074763;28;20072;-88
2022/05/28 09:51:20;;;;;;;;;;;22.30;51.50;;;;;;5098215;28;20055;-89
2022/05/28 09:54:23;;;;;;;3.03;0.90;;;22.70;43.70;;;;;;5082105;28;19947;-85
2022/05/28 09:57:21;;;;;;;;;;;22.90;46.20;;;;;;5098259;28;20140;-88
2022/05/28 10:00:13;;;;;;;3.05;1.00;;;22.60;47.50;;;;;;5118778;27;19923;-84
2022/05/28 10:06:14;;;;;;;6.35;1.40;;;21.50;53.00;;;;;;5101766;28;20138;-86
2022/05/28 10:09:13;;;;;;;5.45;1.45;;;21.30;47.10;;;;;;5084849;28;20494;-88
2022/05/28 10:12:13;;;;;;;4.03;1.40;;;20.50;45.90;;;;;;5097256;28;20089;-84
2022/05/28 10:15:07;;;;;;;5.40;1.00;;;21.00;47.30;;;;;;5094551;28;20051;-86
2022/05/28 10:18:04;;;;;;;2.58;1.00;;;21.70;45.50;;;;;;5075373;28;20719;-83
2022/05/28 10:21:06;;;;;;;5.50;1.02;;;21.60;47.90;;;;;;5102993;28;20059;-85
2022/05/28 10:24:01;;;;;;;5.13;1.20;;;21.80;49.20;;;;;;5080705;28;20044;-87
2022/05/28 10:27:01;;;;;;;5.05;1.30;;;20.70;48.40;;;;;;5079590;28;20524;-85
2022/05/28 10:29:49;;;;;;;4.40;1.40;;;19.80;51.80;;;;;;5082863;28;20059;-87
2022/05/28 10:32:46;;;;;;;3.78;1.00;;;19.70;54.50;;;;;;5094282;28;20131;-86
2022/05/28 10:35:33;;;;;;;3.83;0.98;;;20.40;55.00;;;;;;5082657;28;20050;-87
2022/05/28 10:38:25;;;;;;;4.40;1.23;;;21.50;46.80;;;;;;5086096;28;20040;-83
2022/05/28 10:41:20;;;;;;;4.63;1.25;;;22.90;46.90;;;;;;5092209;28;20115;-84
2022/05/28 10:44:09;;;;;;;3.78;1.10;;;23.60;42.50;;;;;;5092638;28;20066;-85
2022/05/28 10:47:29;;;;;;;5.88;1.42;;;22.10;42.20;;;;;;5089881;28;20188;-84
2022/05/28 10:50:34;;;;;;;6.38;1.52;;;20.30;50.60;;;;;;5074411;28;20660;-84
2022/05/28 10:53:49;;;;;;;4.35;1.10;;;19.50;52.40;;;;;;5087879;28;20532;-83
2022/05/28 10:57:11;;;;;;;3.50;1.08;;;19.20;51.30;;;;;;5090264;28;20055;-86
2022/05/28 11:00:29;;;;;;;5.40;1.67;;;19.00;55.00;;;;;;5089070;28;20125;-85
2022/05/28 11:03:38;;;;;;;7.90;1.30;;;20.00;52.30;;;;;;5092998;28;20044;-85
2022/05/28 11:06:34;;;;;;;4.32;1.30;;;21.10;53.40;;;;;;5105719;28;20044;-84
2022/05/28 11:09:57;;;;;;;5.57;1.00;;;22.70;46.90;;;;;;5107518;28;20035;-80
2022/05/28 11:12:54;;;;;;;4.95;0.90;;;23.40;41.60;;;;;;5086382;28;20519;-85
2022/05/28 11:15:41;;;;;;;3.17;0.98;;;22.20;41.90;;;;;;5080195;28;20037;-86
2022/05/28 11:19:25;;;;;;;9.52;1.10;;;21.50;47.10;;;;;;5092147;28;20166;-89
2022/05/28 11:22:43;;;;;;;6.20;1.80;;;20.00;52.10;;;;;;5047634;28;20045;-88
2022/05/28 11:26:08;;;;;;;8.02;1.73;;;18.30;55.30;;;;;;5043540;28;20122;-87
2022/05/28 11:29:18;;;;;;;6.55;1.60;;;17.40;57.70;;;;;;5071938;28;20047;-86
2022/05/28 11:32:09;;;;;;;6.75;1.67;;;17.00;59.90;;;;;;5076454;28;20145;-87
2022/05/28 11:35:00;;;;;;;4.65;1.40;;;17.50;58.80;;;;;;5085832;28;20056;-90
2022/05/28 11:38:04;;;;;;;8.68;1.42;;;18.10;58.20;;;;;;5091634;28;20156;-89
2022/05/28 11:41:41;;;;;;;4.45;1.40;;;19.00;59.90;;;;;;5095352;28;20512;-86
2022/05/28 11:44:42;;;;;;;4.95;1.15;;;19.90;53.20;;;;;;5086360;28;20052;-87
2022/05/28 11:47:52;;;;;;;7.75;1.38;;;20.10;51.90;;;;;;5085154;28;20055;-86
2022/05/28 11:54:05;;;;;;;9.43;1.20;;;20.90;44.50;;;;;;5095523;28;20048;-87
2022/05/28 11:56:58;;;;;;;5.65;1.10;;;20.80;44.20;;;;;;5095188;28;20465;-85
2022/05/28 11:59:49;;;;;;;2.45;0.80;;;21.00;43.10;;;;;;5109900;28;20047;-84
2022/05/28 12:02:46;;;;;;;4.30;1.10;;;21.40;43.80;;;;;;5083665;28;20192;-83
2022/05/28 12:05:47;;;;;;;2.88;1.00;;;21.60;46.10;;;;;;5103282;28;20040;-86
2022/05/28 12:08:43;;;;;;;4.38;1.15;;;23.00;43.60;;;;;;5094271;28;20042;-84
2022/05/28 12:11:30;;;;;;;5.07;1.10;;;24.80;42.10;;;;;;5112392;28;20284;-86
2022/05/28 12:14:31;;;;;;;5.28;1.27;;;25.70;40.30;;;;;;5101653;28;20097;-81
2022/05/28 12:17:18;;;;;;;4.00;1.00;;;25.60;40.00;;;;;;5110981;28;20097;-83
2022/05/28 12:20:10;;;;;;;3.67;1.10;;;24.80;34.60;;;;;;5113994;28;20136;-90
2022/05/28 12:23:01;;;;;;;3.50;0.98;;;24.80;39.30;;;;;;5070344;28;20062;-86
2022/05/28 12:25:49;;;;;;;5.65;1.00;;;25.60;38.00;;;;;;5107767;28;20098;-86
2022/05/28 12:28:51;;;;;;;4.70;1.10;;;26.60;37.20;;;;;;5105132;28;20201;-87
2022/05/28 12:31:38;;;;;;;;;;;24.90;36.70;;;;;;5064042;28;20044;-84
2022/05/28 12:34:31;;;;;;;3.83;0.80;;;24.40;35.50;;;;;;5077847;28;20019;-87
2022/05/28 12:37:26;;;;;;;3.10;0.80;;;24.30;38.30;;;;;;5082415;28;20588;-85
2022/05/28 12:40:57;;;;;;;4.43;0.98;;;25.70;39.60;;;;;;5067287;28;20048;-85
2022/05/28 12:43:54;;;;;;;4.85;1.33;;;27.30;32.40;;;;;;5061224;28;20122;-89
2022/05/28 12:46:49;;;;;;;4.72;1.10;;;27.50;31.00;;;;;;5076022;28;20052;-85
2022/05/28 12:50:24;;;;;;;2.65;0.77;;;27.50;31.70;;;;;;5077398;28;20040;-87
2022/05/28 12:53:19;;;;;;;4.95;1.10;;;28.00;31.80;;;;;;4998855;28;20108;-86
2022/05/28 12:56:25;;;;;;;2.45;0.68;;;29.00;30.00;;;;;;5026790;28;20504;-86
2022/05/28 12:59:22;;;;;;;2.25;0.85;;;27.60;35.60;;;;;;5078391;28;20044;-85
2022/05/28 13:02:31;;;;;;;3.95;1.13;;;27.00;33.30;;;;;;5074566;28;20105;-83
2022/05/28 13:05:52;;;;;;;3.80;1.17;;;27.20;33.50;;;;;;5078493;28;20044;-89
2022/05/28 13:08:49;;;;;;;3.97;1.00;;;26.40;33.30;;;;;;5079237;27;20090;-87
2022/05/28 13:11:52;;;;;;;3.67;0.93;;;24.80;37.90;;;;;;5071180;28;20080;-88
2022/05/28 13:14:45;;;;;;;3.67;1.23;;;24.30;38.10;;;;;;5070699;28;20467;-86
2022/05/28 13:17:41;;;;;;;5.45;1.40;;;25.20;36.70;;;;;;5085791;28;20529;-87
2022/05/28 13:20:47;;;;;;;5.63;1.25;;;26.20;35.00;;;;;;5074846;28;20116;-87
2022/05/28 13:23:59;;;;;;;7.43;1.63;;;25.30;37.60;;;;;;5077714;28;20145;-85
2022/05/28 13:27:02;;;;;;;5.38;1.25;;;24.40;38.80;;;;;;5077862;28;20055;-87
2022/05/28 13:30:17;;;;;;;4.78;1.30;;;24.60;38.70;;;;;;5066395;28;20082;-87
2022/05/28 13:33:12;;;;;;;5.63;1.33;;;25.50;35.70;;;;;;5072463;28;20079;-87
2022/05/28 13:36:01;;;;;;;4.10;1.10;;;26.00;36.40;;;;;;5073391;28;20072;-86
2022/05/28 13:38:55;;;;;;;5.05;1.10;;;26.30;38.40;;;;;;5063897;28;20142;-87
2022/05/28 13:41:48;;;;;;;3.40;1.05;;;26.00;36.30;;;;;;5079691;28;20145;-88
2022/05/28 13:44:37;;;;;;;4.32;1.00;;;24.40;38.20;;;;;;5092494;28;20127;-86
2022/05/28 13:47:38;;;;;;;4.57;1.20;;;24.20;38.60;;;;;;5077937;28;20133;-86
2022/05/28 13:50:28;;;;;;;4.97;1.10;;;24.40;41.90;;;;;;5065627;28;20136;-84
2022/05/28 13:53:29;;;;;;;4.93;1.10;;;24.90;38.70;;;;;;5082944;28;20048;-87
2022/05/28 13:56:25;;;;;;;4.00;1.23;;;25.10;34.00;;;;;;5080570;28;20056;-84
2022/05/28 13:59:13;;;;;;;6.63;1.20;;;24.40;40.40;;;;;;5076199;28;20037;-89
2022/05/28 14:02:02;;;;;;;3.65;0.90;;;24.30;39.80;;;;;;5051073;28;20117;-85
2022/05/28 14:04:52;;;;;;;6.05;0.98;;;24.80;39.30;;;;;;5060728;28;20059;-90
2022/05/28 14:07:42;;;;;;;3.80;1.05;;;25.60;34.30;;;;;;5068070;28;20530;-85
2022/05/28 14:10:34;;;;;;;3.13;1.10;;;25.10;36.90;;;;;;5074951;28;20080;-82
2022/05/28 14:13:29;;;;;;;5.53;1.35;;;24.70;40.90;;;;;;5085691;28;20059;-87
2022/05/28 14:16:40;;;;;;;3.10;1.27;;;24.30;37.40;;;;;;5086457;28;20142;-85
2022/05/28 14:19:32;;;;;;;4.60;0.80;;;23.70;39.20;;;;;;5073563;28;20614;-87
2022/05/28 14:22:31;;;;;;;5.32;1.02;;;24.50;38.40;;;;;;5078529;28;20048;-86
2022/05/28 14:25:29;;;;;;;3.08;1.10;;;24.80;38.50;;;;;;5079427;28;20045;-89
2022/05/28 14:28:19;;;;;;;6.28;0.90;;;25.80;38.30;;;;;;5069921;28;20064;-88
2022/05/28 14:31:09;;;;;;;6.32;1.08;;;27.00;38.30;;;;;;5075005;28;20099;-87
2022/05/28 14:34:00;;;;;;;5.32;0.88;;;27.40;32.30;;;;;;5082991;28;20032;-81
2022/05/28 14:36:59;;;;;;;3.10;1.00;;;27.10;28.70;;;;;;5084048;28;20091;-89
2022/05/28 14:39:49;;;;;;;2.75;0.75;;;26.60;32.40;;;;;;5072537;28;20702;-83
2022/05/28 14:42:44;;;;;;;3.45;0.90;;;26.60;29.50;;;;;;5067235;28;20060;-88
2022/05/28 14:45:41;;;;;;;1.80;0.77;;;27.30;29.70;;;;;;5068822;28;20048;-85
2022/05/28 14:48:30;;;;;;;3.67;0.93;;;27.90;30.90;;;;;;5077982;28;20075;-90
2022/05/28 14:51:20;;;;;;;2.60;0.60;;;27.90;28.90;;;;;;5082800;28;20068;-84
2022/05/28 14:54:30;;;;;;;2.10;0.75;;;27.40;31.50;;;;;;5078428;28;20040;-87
2022/05/28 14:57:42;;;;;;;4.97;0.80;;;24.30;34.80;;;;;;5080537;28;20048;-86
2022/05/28 15:00:36;;;;;;;3.07;0.70;;;24.00;39.10;;;;;;5073740;28;20054;-87
2022/05/28 15:03:32;;;;;;;3.47;1.20;;;24.60;37.70;;;;;;5076870;28;21029;-85
2022/05/28 15:06:22;;;;;;;5.03;0.85;;;24.20;37.00;;;;;;5063432;28;20700;-85
2022/05/28 15:09:19;;;;;;;3.15;1.08;;;24.70;36.10;;;;;;5068221;28;20308;-88
2022/05/28 15:12:15;;;;;;;2.97;1.00;;;24.40;38.00;;;;;;5072921;28;20048;-89
2022/05/28 15:15:07;;;;;;;3.63;1.25;;;23.60;38.50;;;;;;5066206;28;20052;-86